sensor_id;sensor_type;location;lat;lon;timestamp;pressure;altitude;pressure_sealevel;temperature;humidity
76050;BME280;64967;50.234;19.224;2022-12-24T00:01:18;97409.66;;;3.92;100.00
76050;BME280;64967;50.234;19.224;2022-12-24T00:03:46;97414.00;;;3.93;100.00
76050;BME280;64967;50.234;19.224;2022-12-24T00:06:21;97418.53;;;3.93;100.00
76050;BME280;64967;50.234;19.224;2022-12-24T00:08:49;97407.19;;;3.91;100.00
76050;BME280;64967;50.234;19.224;2022-12-24T00:11:17;97399.75;;;3.86;100.00
76050;BME280;64967;50.234;19.224;2022-12-24T00:13:45;97406.16;;;3.92;100.00
76050;BME280;64967;50.234;19.224;2022-12-24T00:16:12;97416.50;;;3.95;100.00
76050;BME280;64967;50.234;19.224;2022-12-24T00:18:40;97397.50;;;3.90;100.00
76050;BME280;64967;50.234;19.224;2022-12-24T00:21:13;97394.84;;;3.90;100.00
76050;BME280;64967;50.234;19.224;2022-12-24T00:23:40;97395.09;;;3.95;100.00
76050;BME280;64967;50.234;19.224;2022-12-24T00:26:10;97393.44;;;3.94;100.00
76050;BME280;64967;50.234;19.224;2022-12-24T00:28:38;97382.56;;;3.95;100.00
76050;BME280;64967;50.234;19.224;2022-12-24T00:31:13;97389.75;;;3.95;100.00
76050;BME280;64967;50.234;19.224;2022-12-24T00:33:41;97386.44;;;3.93;100.00
76050;BME280;64967;50.234;19.224;2022-12-24T00:36:08;97373.72;;;3.95;100.00
76050;BME280;64967;50.234;19.224;2022-12-24T00:38:36;97361.34;;;3.94;100.00
76050;BME280;64967;50.234;19.224;2022-12-24T00:41:05;97355.00;;;3.95;100.00
76050;BME280;64967;50.234;19.224;2022-12-24T00:43:32;97358.84;;;3.92;100.00
76050;BME280;64967;50.234;19.224;2022-12-24T00:45:59;97348.63;;;3.96;100.00
76050;BME280;64967;50.234;19.224;2022-12-24T00:48:26;97339.97;;;3.94;100.00
76050;BME280;64967;50.234;19.224;2022-12-24T00:50:53;97343.28;;;3.96;100.00
76050;BME280;64967;50.234;19.224;2022-12-24T00:53:20;97339.38;;;3.98;100.00
76050;BME280;64967;50.234;19.224;2022-12-24T00:55:47;97341.88;;;4.00;100.00
76050;BME280;64967;50.234;19.224;2022-12-24T00:58:14;97340.84;;;4.01;100.00
76050;BME280;64967;50.234;19.224;2022-12-24T01:00:41;97333.47;;;4.03;100.00
76050;BME280;64967;50.234;19.224;2022-12-24T01:03:08;97342.50;;;4.02;100.00
76050;BME280;64967;50.234;19.224;2022-12-24T01:05:35;97327.47;;;4.01;100.00
76050;BME280;64967;50.234;19.224;2022-12-24T01:08:02;97330.16;;;4.01;100.00
76050;BME280;64967;50.234;19.224;2022-12-24T01:10:29;97335.50;;;4.01;100.00
76050;BME280;64967;50.234;19.224;2022-12-24T01:12:56;97346.84;;;4.03;100.00
76050;BME280;64967;50.234;19.224;2022-12-24T01:15:23;97346.66;;;4.04;100.00
76050;BME280;64967;50.234;19.224;2022-12-24T01:17:50;97341.69;;;4.01;100.00
76050;BME280;64967;50.234;19.224;2022-12-24T01:20:17;97344.44;;;4.08;100.00
76050;BME280;64967;50.234;19.224;2022-12-24T01:22:44;97340.75;;;4.09;100.00
76050;BME280;64967;50.234;19.224;2022-12-24T01:25:11;97333.91;;;4.07;100.00
76050;BME280;64967;50.234;19.224;2022-12-24T01:27:38;97333.56;;;4.10;100.00
76050;BME280;64967;50.234;19.224;2022-12-24T01:30:07;97334.34;;;4.10;100.00
76050;BME280;64967;50.234;19.224;2022-12-24T01:32:34;97312.69;;;3.84;100.00
76050;BME280;64967;50.234;19.224;2022-12-24T01:35:01;97352.44;;;4.08;100.00
76050;BME280;64967;50.234;19.224;2022-12-24T01:37:28;97356.97;;;4.08;100.00
76050;BME280;64967;50.234;19.224;2022-12-24T01:39:55;97351.44;;;4.09;100.00
76050;BME280;64967;50.234;19.224;2022-12-24T01:42:47;97355.97;;;4.09;100.00
76050;BME280;64967;50.234;19.224;2022-12-24T01:45:52;97355.97;;;4.09;100.00
76050;BME280;64967;50.234;19.224;2022-12-24T01:48:24;97361.09;;;4.10;100.00
76050;BME280;64967;50.234;19.224;2022-12-24T01:51:02;97342.38;;;4.10;100.00
76050;BME280;64967;50.234;19.224;2022-12-24T01:53:30;97338.44;;;4.06;100.00
76050;BME280;64967;50.234;19.224;2022-12-24T01:56:00;97342.16;;;4.05;100.00
76050;BME280;64967;50.234;19.224;2022-12-24T01:58:28;97344.88;;;4.12;100.00
76050;BME280;64967;50.234;19.224;2022-12-24T02:00:56;97330.66;;;4.11;100.00
76050;BME280;64967;50.234;19.224;2022-12-24T02:03:23;97327.16;;;4.11;100.00
76050;BME280;64967;50.234;19.224;2022-12-24T02:05:52;97322.19;;;4.08;100.00
76050;BME280;64967;50.234;19.224;2022-12-24T02:08:20;97323.88;;;4.09;100.00
76050;BME280;64967;50.234;19.224;2022-12-24T02:10:51;97318.13;;;4.12;100.00
76050;BME280;64967;50.234;19.224;2022-12-24T02:13:42;97319.81;;;4.19;100.00
76050;BME280;64967;50.234;19.224;2022-12-24T02:31:55;97341.00;;;4.42;100.00
76050;BME280;64967;50.234;19.224;2022-12-24T02:34:33;97331.16;;;4.42;100.00
76050;BME280;64967;50.234;19.224;2022-12-24T02:37:14;97329.13;;;4.44;100.00
76050;BME280;64967;50.234;19.224;2022-12-24T02:39:52;97326.44;;;4.44;100.00
76050;BME280;64967;50.234;19.224;2022-12-24T02:42:31;97323.53;;;4.46;100.00
76050;BME280;64967;50.234;19.224;2022-12-24T02:45:07;97325.66;;;4.50;100.00
76050;BME280;64967;50.234;19.224;2022-12-24T02:47:37;97311.25;;;4.52;100.00
76050;BME280;64967;50.234;19.224;2022-12-24T02:50:07;97311.25;;;4.52;100.00
76050;BME280;64967;50.234;19.224;2022-12-24T02:52:40;97324.63;;;4.52;100.00
76050;BME280;64967;50.234;19.224;2022-12-24T03:04:11;97332.28;;;4.55;100.00
76050;BME280;64967;50.234;19.224;2022-12-24T03:06:43;97331.91;;;4.58;100.00
76050;BME280;64967;50.234;19.224;2022-12-24T03:09:30;97322.19;;;4.57;100.00
76050;BME280;64967;50.234;19.224;2022-12-24T03:12:08;97330.88;;;4.59;100.00
76050;BME280;64967;50.234;19.224;2022-12-24T03:14:39;97340.16;;;4.63;100.00
76050;BME280;64967;50.234;19.224;2022-12-24T03:17:08;97347.19;;;4.64;100.00
76050;BME280;64967;50.234;19.224;2022-12-24T03:19:36;97362.41;;;4.63;100.00
76050;BME280;64967;50.234;19.224;2022-12-24T03:22:06;97350.81;;;4.56;100.00
76050;BME280;64967;50.234;19.224;2022-12-24T03:24:34;97364.25;;;4.63;100.00
76050;BME280;64967;50.234;19.224;2022-12-24T03:27:04;97366.50;;;4.59;100.00
76050;BME280;64967;50.234;19.224;2022-12-24T03:29:32;97374.13;;;4.62;100.00
76050;BME280;64967;50.234;19.224;2022-12-24T03:32:02;97375.81;;;4.63;100.00
76050;BME280;64967;50.234;19.224;2022-12-24T03:34:29;97378.91;;;4.67;100.00
76050;BME280;64967;50.234;19.224;2022-12-24T03:36:57;97371.50;;;4.69;100.00
76050;BME280;64967;50.234;19.224;2022-12-24T03:39:24;97373.81;;;4.72;100.00
76050;BME280;64967;50.234;19.224;2022-12-24T03:41:51;97370.91;;;4.73;100.00
76050;BME280;64967;50.234;19.224;2022-12-24T03:44:18;97364.13;;;4.71;100.00
76050;BME280;64967;50.234;19.224;2022-12-24T03:46:45;97382.09;;;4.77;100.00
76050;BME280;64967;50.234;19.224;2022-12-24T03:49:12;97376.91;;;4.75;100.00
76050;BME280;64967;50.234;19.224;2022-12-24T03:51:39;97375.69;;;4.78;100.00
76050;BME280;64967;50.234;19.224;2022-12-24T03:54:06;97368.50;;;4.78;100.00
76050;BME280;64967;50.234;19.224;2022-12-24T03:56:33;97375.69;;;4.78;100.00
76050;BME280;64967;50.234;19.224;2022-12-24T03:59:00;97364.72;;;4.73;100.00
76050;BME280;64967;50.234;19.224;2022-12-24T04:01:27;97387.66;;;4.82;100.00
76050;BME280;64967;50.234;19.224;2022-12-24T04:03:54;97372.81;;;4.79;100.00
76050;BME280;64967;50.234;19.224;2022-12-24T04:06:21;97374.50;;;4.80;100.00
76050;BME280;64967;50.234;19.224;2022-12-24T04:08:48;97374.28;;;4.82;100.00
76050;BME280;64967;50.234;19.224;2022-12-24T04:11:16;97371.81;;;4.80;100.00
76050;BME280;64967;50.234;19.224;2022-12-24T04:13:43;97371.38;;;4.77;100.00
76050;BME280;64967;50.234;19.224;2022-12-24T04:16:12;97378.38;;;4.78;100.00
76050;BME280;64967;50.234;19.224;2022-12-24T04:18:41;97370.34;;;4.78;100.00
76050;BME280;64967;50.234;19.224;2022-12-24T04:21:08;97374.50;;;4.80;100.00
76050;BME280;64967;50.234;19.224;2022-12-24T04:23:37;97373.47;;;4.81;100.00
76050;BME280;64967;50.234;19.224;2022-12-24T04:26:06;97367.06;;;4.82;100.00
76050;BME280;64967;50.234;19.224;2022-12-24T04:28:34;97362.56;;;4.83;100.00
76050;BME280;64967;50.234;19.224;2022-12-24T04:31:08;97365.44;;;4.81;100.00
76050;BME280;64967;50.234;19.224;2022-12-24T04:33:36;97366.25;;;4.82;100.00
76050;BME280;64967;50.234;19.224;2022-12-24T04:36:05;97364.41;;;4.82;100.00
76050;BME280;64967;50.234;19.224;2022-12-24T04:38:33;97376.78;;;4.83;100.00
76050;BME280;64967;50.234;19.224;2022-12-24T04:41:09;97371.59;;;4.82;100.00
76050;BME280;64967;50.234;19.224;2022-12-24T04:43:44;97357.59;;;4.80;100.00
76050;BME280;64967;50.234;19.224;2022-12-24T04:46:16;97366.25;;;4.82;100.00
76050;BME280;64967;50.234;19.224;2022-12-24T04:48:45;97373.00;;;4.78;100.00
76050;BME280;64967;50.234;19.224;2022-12-24T04:51:13;97378.00;;;4.81;100.00
76050;BME280;64967;50.234;19.224;2022-12-24T04:53:41;97370.72;;;4.75;100.00
76050;BME280;64967;50.234;19.224;2022-12-24T04:56:15;97380.69;;;4.81;100.00
76050;BME280;64967;50.234;19.224;2022-12-24T04:58:43;97364.13;;;4.71;100.00
76050;BME280;64967;50.234;19.224;2022-12-24T05:01:16;97379.63;;;4.82;100.00
76050;BME280;64967;50.234;19.224;2022-12-24T05:03:44;97376.16;;;4.81;100.00
76050;BME280;64967;50.234;19.224;2022-12-24T05:06:13;97376.94;;;4.82;100.00
76050;BME280;64967;50.234;19.224;2022-12-24T05:08:41;97375.09;;;4.82;100.00
76050;BME280;64967;50.234;19.224;2022-12-24T05:11:11;97372.66;;;4.81;100.00
76050;BME280;64967;50.234;19.224;2022-12-24T05:13:42;97371.81;;;4.80;100.00
76050;BME280;64967;50.234;19.224;2022-12-24T05:16:14;97375.69;;;4.78;100.00
76050;BME280;64967;50.234;19.224;2022-12-24T05:18:41;97375.44;;;4.73;100.00
76050;BME280;64967;50.234;19.224;2022-12-24T05:21:20;97377.31;;;4.72;100.00
76050;BME280;64967;50.234;19.224;2022-12-24T05:23:47;97390.88;;;4.71;100.00
76050;BME280;64967;50.234;19.224;2022-12-24T05:29:03;97390.47;;;4.67;100.00
76050;BME280;64967;50.234;19.224;2022-12-24T05:31:31;97392.72;;;4.70;100.00
76050;BME280;64967;50.234;19.224;2022-12-24T05:34:00;97398.91;;;4.71;100.00
76050;BME280;64967;50.234;19.224;2022-12-24T05:36:27;97395.41;;;4.70;100.00
76050;BME280;64967;50.234;19.224;2022-12-24T05:38:54;97391.28;;;4.68;100.00
76050;BME280;64967;50.234;19.224;2022-12-24T05:41:21;97395.41;;;4.70;100.00
76050;BME280;64967;50.234;19.224;2022-12-24T05:43:49;97395.22;;;4.72;100.00
76050;BME280;64967;50.234;19.224;2022-12-24T05:46:18;97403.69;;;4.75;100.00
76050;BME280;64967;50.234;19.224;2022-12-24T05:48:46;97404.97;;;4.79;100.00
76050;BME280;64967;50.234;19.224;2022-12-24T05:51:15;97406.41;;;4.82;100.00
76050;BME280;64967;50.234;19.224;2022-12-24T05:53:46;97398.19;;;4.83;100.00
76050;BME280;64967;50.234;19.224;2022-12-24T05:56:16;97395.50;;;4.83;100.00
76050;BME280;64967;50.234;19.224;2022-12-24T05:58:44;97404.38;;;4.84;100.00
76050;BME280;64967;50.234;19.224;2022-12-24T06:01:11;97407.47;;;4.81;100.00
76050;BME280;64967;50.234;19.224;2022-12-24T06:03:39;97407.81;;;4.78;100.00
76050;BME280;64967;50.234;19.224;2022-12-24T06:06:08;97400.44;;;4.80;100.00
76050;BME280;64967;50.234;19.224;2022-12-24T06:08:37;97410.31;;;4.79;100.00
76050;BME280;64967;50.234;19.224;2022-12-24T06:11:07;97411.97;;;4.80;100.00
76050;BME280;64967;50.234;19.224;2022-12-24T06:13:35;97420.63;;;4.82;100.00
76050;BME280;64967;50.234;19.224;2022-12-24T06:16:04;97413.19;;;4.78;100.00
76050;BME280;64967;50.234;19.224;2022-12-24T06:18:32;97417.78;;;4.84;100.00
76050;BME280;64967;50.234;19.224;2022-12-24T06:21:00;97424.78;;;4.85;100.00
76050;BME280;64967;50.234;19.224;2022-12-24T06:23:28;97437.97;;;4.86;100.00
76050;BME280;64967;50.234;19.224;2022-12-24T06:25:58;97443.53;;;4.85;100.00
76050;BME280;64967;50.234;19.224;2022-12-24T06:28:31;97442.53;;;4.86;100.00
76050;BME280;64967;50.234;19.224;2022-12-24T06:30:59;97450.34;;;4.87;100.00
76050;BME280;64967;50.234;19.224;2022-12-24T06:33:30;97446.22;;;4.85;100.00
76050;BME280;64967;50.234;19.224;2022-12-24T06:35:57;97447.88;;;4.86;100.00
76050;BME280;64967;50.234;19.224;2022-12-24T06:38:25;97437.16;;;4.86;100.00
76050;BME280;64967;50.234;19.224;2022-12-24T06:40:52;97449.16;;;4.90;100.00
76050;BME280;64967;50.234;19.224;2022-12-24T06:43:21;97448.75;;;4.93;100.00
76050;BME280;64967;50.234;19.224;2022-12-24T06:45:49;97446.72;;;4.95;100.00
76050;BME280;64967;50.234;19.224;2022-12-24T06:48:16;97451.69;;;4.98;100.00
76050;BME280;64967;50.234;19.224;2022-12-24T06:50:43;97449.56;;;4.93;100.00
76050;BME280;64967;50.234;19.224;2022-12-24T06:53:10;97417.34;;;4.80;100.00
76050;BME280;64967;50.234;19.224;2022-12-24T06:55:37;97415.84;;;4.78;100.00
76050;BME280;64967;50.234;19.224;2022-12-24T06:58:05;97449.63;;;5.00;100.00
76050;BME280;64967;50.234;19.224;2022-12-24T07:00:32;97437.59;;;4.89;100.00
76050;BME280;64967;50.234;19.224;2022-12-24T07:02:59;97439.25;;;4.90;100.00
76050;BME280;64967;50.234;19.224;2022-12-24T07:05:26;97439.03;;;4.92;100.00
76050;BME280;64967;50.234;19.224;2022-12-24T07:07:54;97465.75;;;5.07;100.00
76050;BME280;64967;50.234;19.224;2022-12-24T07:10:22;97448.34;;;4.96;100.00
76050;BME280;64967;50.234;19.224;2022-12-24T07:12:49;97473.97;;;5.05;100.00
76050;BME280;64967;50.234;19.224;2022-12-24T07:15:16;97473.78;;;5.07;100.00
76050;BME280;64967;50.234;19.224;2022-12-24T07:17:43;97444.81;;;4.89;100.00
76050;BME280;64967;50.234;19.224;2022-12-24T07:20:12;97487.88;;;5.15;100.00
76050;BME280;64967;50.234;19.224;2022-12-24T07:22:42;97485.00;;;5.17;100.00
76050;BME280;64967;50.234;19.224;2022-12-24T07:25:10;97480.59;;;5.09;100.00
76050;BME280;64967;50.234;19.224;2022-12-24T07:27:38;97493.47;;;5.20;100.00
76050;BME280;64967;50.234;19.224;2022-12-24T07:30:06;97473.59;;;5.08;100.00
76050;BME280;64967;50.234;19.224;2022-12-24T07:32:33;97475.06;;;5.11;100.00
76050;BME280;64967;50.234;19.224;2022-12-24T07:35:00;97495.75;;;5.23;100.00
76050;BME280;64967;50.234;19.224;2022-12-24T07:37:27;97479.44;;;5.18;100.00
76050;BME280;64967;50.234;19.224;2022-12-24T07:39:54;97505.06;;;5.27;100.00
76050;BME280;64967;50.234;19.224;2022-12-24T07:42:21;97495.13;;;5.21;100.00
76050;BME280;64967;50.234;19.224;2022-12-24T07:44:48;97480.00;;;5.14;100.00
76050;BME280;64967;50.234;19.224;2022-12-24T07:47:15;97489.53;;;5.16;100.00
76050;BME280;64967;50.234;19.224;2022-12-24T07:49:42;97508.25;;;5.37;100.00
76050;BME280;64967;50.234;19.224;2022-12-24T07:52:09;97522.06;;;5.41;100.00
76050;BME280;64967;50.234;19.224;2022-12-24T07:54:36;97488.97;;;5.27;100.00
76050;BME280;64967;50.234;19.224;2022-12-24T07:57:03;97524.16;;;5.46;100.00
76050;BME280;64967;50.234;19.224;2022-12-24T07:59:30;97476.56;;;5.20;100.00
76050;BME280;64967;50.234;19.224;2022-12-24T08:01:57;97507.63;;;5.35;100.00
76050;BME280;64967;50.234;19.224;2022-12-24T08:04:25;97496.44;;;5.32;100.00
76050;BME280;64967;50.234;19.224;2022-12-24T08:06:52;97534.56;;;5.55;100.00
76050;BME280;64967;50.234;19.224;2022-12-24T08:09:18;97484.88;;;5.31;100.00
76050;BME280;64967;50.234;19.224;2022-12-24T08:11:45;97521.97;;;5.56;100.00
76050;BME280;64967;50.234;19.224;2022-12-24T08:14:17;97520.91;;;5.50;100.00
76050;BME280;64967;50.234;19.224;2022-12-24T08:16:44;97539.56;;;5.65;100.00
76050;BME280;64967;50.234;19.224;2022-12-24T08:19:12;97482.09;;;5.39;100.00
76050;BME280;64967;50.234;19.224;2022-12-24T08:21:39;97522.66;;;5.64;100.00
76050;BME280;64967;50.234;19.224;2022-12-24T08:24:06;97494.31;;;5.49;100.00
76050;BME280;64967;50.234;19.224;2022-12-24T08:26:33;97541.31;;;5.79;100.00
76050;BME280;64967;50.234;19.224;2022-12-24T08:29:01;97510.25;;;5.63;100.00
76050;BME280;64967;50.234;19.224;2022-12-24T08:31:28;97537.63;;;5.80;100.00
76050;BME280;64967;50.234;19.224;2022-12-24T08:33:56;97526.41;;;5.70;100.00
76050;BME280;64967;50.234;19.224;2022-12-24T08:36:23;97525.16;;;5.66;100.00
76050;BME280;64967;50.234;19.224;2022-12-24T08:38:50;97558.97;;;5.88;100.00
76050;BME280;64967;50.234;19.224;2022-12-24T08:41:16;97568.84;;;5.88;100.00
76050;BME280;64967;50.234;19.224;2022-12-24T08:43:43;97571.97;;;5.91;100.00
76050;BME280;64967;50.234;19.224;2022-12-24T08:46:10;97576.13;;;5.94;100.00
76050;BME280;64967;50.234;19.224;2022-12-24T08:48:37;97563.63;;;5.86;100.00
76050;BME280;64967;50.234;19.224;2022-12-24T08:51:09;97577.56;;;5.96;100.00
76050;BME280;64967;50.234;19.224;2022-12-24T08:53:37;97575.72;;;5.97;100.00
76050;BME280;64967;50.234;19.224;2022-12-24T08:56:07;97582.75;;;5.98;100.00
76050;BME280;64967;50.234;19.224;2022-12-24T08:58:34;97579.84;;;5.99;100.00
76050;BME280;64967;50.234;19.224;2022-12-24T09:01:12;97584.41;;;5.99;100.00
76050;BME280;64967;50.234;19.224;2022-12-24T09:03:40;97579.84;;;5.99;100.00
76050;BME280;64967;50.234;19.224;2022-12-24T09:06:08;97590.22;;;6.02;100.00
76050;BME280;64967;50.234;19.224;2022-12-24T09:08:35;97589.81;;;6.05;100.00
76050;BME280;64967;50.234;19.224;2022-12-24T09:11:11;97591.72;;;6.11;100.00
76050;BME280;64967;50.234;19.224;2022-12-24T09:13:39;97587.38;;;6.10;100.00
76050;BME280;64967;50.234;19.224;2022-12-24T09:16:07;97606.38;;;6.15;100.00
76050;BME280;64967;50.234;19.224;2022-12-24T09:18:34;97597.94;;;6.18;100.00
76050;BME280;64967;50.234;19.224;2022-12-24T09:21:08;97603.97;;;6.27;100.00
76050;BME280;64967;50.234;19.224;2022-12-24T09:23:37;97604.59;;;6.29;99.54
76050;BME280;64967;50.234;19.224;2022-12-24T09:26:11;97604.63;;;6.36;99.34
76050;BME280;64967;50.234;19.224;2022-12-24T09:28:38;97598.88;;;6.39;99.26
76050;BME280;64967;50.234;19.224;2022-12-24T09:31:06;97612.75;;;6.49;98.73
76050;BME280;64967;50.234;19.224;2022-12-24T09:33:36;97603.66;;;6.50;98.79
76050;BME280;64967;50.234;19.224;2022-12-24T09:36:04;97606.59;;;6.55;98.54
76050;BME280;64967;50.234;19.224;2022-12-24T09:38:32;97600.00;;;6.64;98.03
76050;BME280;64967;50.234;19.224;2022-12-24T09:41:00;97614.94;;;6.73;97.56
76050;BME280;64967;50.234;19.224;2022-12-24T09:43:35;97617.84;;;6.78;96.55
76050;BME280;64967;50.234;19.224;2022-12-24T09:46:24;97620.75;;;6.83;97.04
76050;BME280;64967;50.234;19.224;2022-12-24T09:48:57;97623.22;;;6.85;96.49
76050;BME280;64967;50.234;19.224;2022-12-24T09:54:14;97633.59;;;6.94;95.69
76050;BME280;64967;50.234;19.224;2022-12-24T09:56:45;97634.84;;;6.98;95.88
76050;BME280;64967;50.234;19.224;2022-12-24T09:59:19;97639.84;;;7.01;95.66
76050;BME280;64967;50.234;19.224;2022-12-24T10:01:49;97629.91;;;7.02;95.10
76050;BME280;64967;50.234;19.224;2022-12-24T10:04:19;97626.19;;;7.03;95.04
76050;BME280;64967;50.234;19.224;2022-12-24T10:06:53;97638.41;;;7.05;94.53
76050;BME280;64967;50.234;19.224;2022-12-24T10:12:41;97650.19;;;7.04;95.12
76050;BME280;64967;50.234;19.224;2022-12-24T10:15:28;97667.13;;;7.05;95.37
76050;BME280;64967;50.234;19.224;2022-12-24T10:20:56;97669.63;;;7.06;95.44
76050;BME280;64967;50.234;19.224;2022-12-24T10:23:39;97675.66;;;7.15;94.98
76050;BME280;64967;50.234;19.224;2022-12-24T10:26:26;97693.22;;;7.17;95.18
76050;BME280;64967;50.234;19.224;2022-12-24T10:29:28;97685.78;;;7.20;94.07
76050;BME280;64967;50.234;19.224;2022-12-24T10:32:11;97688.88;;;7.16;94.45
76050;BME280;64967;50.234;19.224;2022-12-24T10:34:52;97681.69;;;7.24;94.03
76050;BME280;64967;50.234;19.224;2022-12-24T10:37:24;97690.16;;;7.27;93.62
76050;BME280;64967;50.234;19.224;2022-12-24T10:39:55;97694.69;;;7.27;93.09
76050;BME280;64967;50.234;19.224;2022-12-24T10:42:30;97686.66;;;7.33;93.88
76050;BME280;64967;50.234;19.224;2022-12-24T10:45:05;97700.13;;;7.33;93.43
76050;BME280;64967;50.234;19.224;2022-12-24T10:47:36;97702.38;;;7.36;93.76
76050;BME280;64967;50.234;19.224;2022-12-24T10:50:10;97701.34;;;7.44;93.48
76050;BME280;64967;50.234;19.224;2022-12-24T10:52:40;97705.94;;;7.50;94.70
76050;BME280;64967;50.234;19.224;2022-12-24T10:57:41;97703.84;;;7.45;95.05
76050;BME280;64967;50.234;19.224;2022-12-24T11:00:23;97713.19;;;7.43;94.73
76050;BME280;64967;50.234;19.224;2022-12-24T11:05:35;97715.78;;;7.30;95.69
76050;BME280;64967;50.234;19.224;2022-12-24T11:08:09;97722.22;;;7.35;96.12
76050;BME280;64967;50.234;19.224;2022-12-24T11:10:43;97729.09;;;7.38;96.48
76050;BME280;64967;50.234;19.224;2022-12-24T11:39:02;97754.09;;;7.32;99.08
76050;BME280;64967;50.234;19.224;2022-12-24T11:41:35;97773.97;;;7.44;99.45
76050;BME280;64967;50.234;19.224;2022-12-24T11:44:03;97781.38;;;7.29;99.49
76050;BME280;64967;50.234;19.224;2022-12-24T11:46:37;97779.72;;;7.34;99.80
76050;BME280;64967;50.234;19.224;2022-12-24T11:49:15;97791.31;;;7.28;99.79
76050;BME280;64967;50.234;19.224;2022-12-24T11:52:19;97809.47;;;7.26;100.00
76050;BME280;64967;50.234;19.224;2022-12-24T11:57:47;97801.06;;;7.36;99.79
76050;BME280;64967;50.234;19.224;2022-12-24T12:00:15;97810.19;;;7.41;99.25
76050;BME280;64967;50.234;19.224;2022-12-24T12:02:45;97814.97;;;7.46;99.54
76050;BME280;64967;50.234;19.224;2022-12-24T12:05:18;97815.13;;;7.38;98.72
76050;BME280;64967;50.234;19.224;2022-12-24T12:07:50;97826.75;;;7.45;98.93
76050;BME280;64967;50.234;19.224;2022-12-24T12:10:35;97817.00;;;7.44;98.34
76050;BME280;64967;50.234;19.224;2022-12-24T12:13:07;97822.59;;;7.42;98.57
76050;BME280;64967;50.234;19.224;2022-12-24T12:15:48;97829.19;;;7.40;97.74
76050;BME280;64967;50.234;19.224;2022-12-24T12:18:59;97833.97;;;7.44;98.01
76050;BME280;64967;50.234;19.224;2022-12-24T12:21:39;97845.97;;;7.42;98.02
76050;BME280;64967;50.234;19.224;2022-12-24T12:24:35;97851.53;;;7.34;98.47
76050;BME280;64967;50.234;19.224;2022-12-24T12:27:29;97852.16;;;7.36;98.50
76050;BME280;64967;50.234;19.224;2022-12-24T12:30:04;97857.09;;;7.32;99.09
76050;BME280;64967;50.234;19.224;2022-12-24T12:33:49;97873.41;;;7.31;99.86
76050;BME280;64967;50.234;19.224;2022-12-24T12:35:44;97875.72;;;7.34;99.81
76050;BME280;64967;50.234;19.224;2022-12-24T12:38:22;97874.84;;;7.27;100.00
76050;BME280;64967;50.234;19.224;2022-12-24T12:44:48;97885.19;;;7.30;100.00
76050;BME280;64967;50.234;19.224;2022-12-24T12:58:36;97905.84;;;7.23;100.00
76050;BME280;64967;50.234;19.224;2022-12-24T13:01:14;97913.50;;;7.26;99.39
76050;BME280;64967;50.234;19.224;2022-12-24T13:06:26;97919.94;;;7.25;99.57
76050;BME280;64967;50.234;19.224;2022-12-24T13:09:15;97918.50;;;7.29;99.03
76050;BME280;64967;50.234;19.224;2022-12-24T13:20:41;97950.19;;;7.33;98.76
76050;BME280;64967;50.234;19.224;2022-12-24T13:23:19;97918.63;;;7.21;98.43
76050;BME280;64967;50.234;19.224;2022-12-24T13:25:51;97933.75;;;7.22;98.39
76050;BME280;64967;50.234;19.224;2022-12-24T13:36:12;97959.56;;;7.16;100.00
76050;BME280;64967;50.234;19.224;2022-12-24T13:38:55;97983.53;;;7.11;100.00
76050;BME280;64967;50.234;19.224;2022-12-24T13:49:33;97996.28;;;7.02;100.00
76050;BME280;64967;50.234;19.224;2022-12-24T13:54:44;98005.72;;;6.98;100.00
76050;BME280;64967;50.234;19.224;2022-12-24T14:02:39;98020.47;;;7.02;100.00
76050;BME280;64967;50.234;19.224;2022-12-24T14:07:53;98027.88;;;7.00;100.00
76050;BME280;64967;50.234;19.224;2022-12-24T14:10:37;98029.91;;;6.98;100.00
76050;BME280;64967;50.234;19.224;2022-12-24T14:21:43;98042.47;;;6.91;100.00
76050;BME280;64967;50.234;19.224;2022-12-24T14:24:22;98065.91;;;6.97;100.00
76050;BME280;64967;50.234;19.224;2022-12-24T14:26:56;98052.34;;;6.84;100.00
76050;BME280;64967;50.234;19.224;2022-12-24T14:29:31;98081.38;;;6.95;100.00
76050;BME280;64967;50.234;19.224;2022-12-24T14:32:00;98079.34;;;6.97;100.00
76050;BME280;64967;50.234;19.224;2022-12-24T14:34:30;98047.25;;;6.75;100.00
76050;BME280;64967;50.234;19.224;2022-12-24T14:36:59;98010.38;;;6.47;100.00
76050;BME280;64967;50.234;19.224;2022-12-24T14:39:31;98078.41;;;6.90;100.00
76050;BME280;64967;50.234;19.224;2022-12-24T14:42:16;98069.22;;;6.78;100.00
76050;BME280;64967;50.234;19.224;2022-12-24T14:55:47;98115.69;;;6.93;98.96
76050;BME280;64967;50.234;19.224;2022-12-24T15:00:48;98096.06;;;6.78;98.94
76050;BME280;64967;50.234;19.224;2022-12-24T15:03:18;98106.44;;;6.81;99.45
76050;BME280;64967;50.234;19.224;2022-12-24T15:05:51;98058.91;;;6.46;99.47
76050;BME280;64967;50.234;19.224;2022-12-24T15:08:32;98123.22;;;6.83;99.13
76050;BME280;64967;50.234;19.224;2022-12-24T15:11:05;98110.63;;;6.69;98.81
76050;BME280;64967;50.234;19.224;2022-12-24T15:13:38;98142.56;;;6.93;98.67
76050;BME280;64967;50.234;19.224;2022-12-24T15:16:18;98141.38;;;6.81;98.79
76050;BME280;64967;50.234;19.224;2022-12-24T15:18:51;98119.16;;;6.72;99.14
76050;BME280;64967;50.234;19.224;2022-12-24T15:21:33;98150.72;;;6.85;99.15
76050;BME280;64967;50.234;19.224;2022-12-24T15:24:03;98144.88;;;6.82;99.39
76050;BME280;64967;50.234;19.224;2022-12-24T15:26:32;98123.78;;;6.64;99.04
76050;BME280;64967;50.234;19.224;2022-12-24T15:29:20;98152.78;;;6.83;99.71
76050;BME280;64967;50.234;19.224;2022-12-24T15:31:58;98155.47;;;6.83;99.16
76050;BME280;64967;50.234;19.224;2022-12-24T15:37:45;98160.72;;;6.91;98.97
76050;BME280;64967;50.234;19.224;2022-12-24T15:40:20;98168.13;;;6.89;98.89
76050;BME280;64967;50.234;19.224;2022-12-24T15:42:48;98164.63;;;6.89;99.36